createdAt,value
2019-05-02T00:00:09.296Z,78.6542
2019-05-02T00:01:12.304Z,78.8739
2019-05-02T00:02:15.338Z,78.9380
2019-05-02T00:03:18.310Z,78.7350
2019-05-02T00:04:21.359Z,78.6892
2019-05-02T00:05:27.393Z,78.8815
2019-05-02T00:06:32.280Z,79.3454
2019-05-02T00:07:34.372Z,79.8993
2019-05-02T00:08:37.281Z,80.2151
2019-05-02T00:09:47.367Z,80.2747
2019-05-02T00:10:48.332Z,80.3479
2019-05-02T00:11:58.609Z,80.4807
2019-05-02T00:12:59.374Z,80.5859
2019-05-02T00:14:04.279Z,81.0346
2019-05-02T00:15:07.298Z,80.7187
2019-05-02T00:16:14.025Z,81.0758
2019-05-02T00:17:20.435Z,81.3458
2019-05-02T00:18:26.333Z,81.4221
2019-05-02T00:19:29.292Z,81.5549
2019-05-02T00:20:31.291Z,81.5137
2019-05-02T00:21:38.275Z,81.7288
2019-05-02T00:22:42.300Z,81.8402
2019-05-02T00:23:45.315Z,81.6373
2019-05-02T00:24:48.299Z,81.5183
2019-05-02T00:25:52.681Z,81.3825
2019-05-02T00:27:01.368Z,82.1149
2019-05-02T00:28:07.795Z,82.3011
2019-05-02T00:29:13.340Z,82.4933
2019-05-02T00:30:16.312Z,82.6825
2019-05-02T00:31:19.289Z,82.9160
2019-05-02T00:32:23.621Z,82.9831
2019-05-02T00:33:29.139Z,82.8016
2019-05-02T00:34:34.314Z,83.1357
2019-05-02T00:35:40.887Z,83.3967
2019-05-02T00:36:45.286Z,83.1937
2019-05-02T00:37:48.282Z,83.0518
2019-05-02T00:38:51.325Z,83.0671
2019-05-02T00:39:54.289Z,83.4653
2019-05-02T00:41:01.731Z,83.5645
2019-05-02T00:42:12.339Z,83.5142
2019-05-02T00:43:13.294Z,83.4730
2019-05-02T00:44:16.299Z,83.3173
2019-05-02T00:45:23.945Z,83.5508
2019-05-02T00:46:30.355Z,83.4913
2019-05-02T00:47:35.336Z,83.6301
2019-05-02T00:48:38.297Z,83.6927
2019-05-02T00:49:41.343Z,83.7903
2019-05-02T00:50:45.264Z,84.0375
2019-05-02T00:51:52.289Z,84.0497
2019-05-02T00:52:55.304Z,84.2969
2019-05-02T00:53:58.292Z,84.1428
2019-05-02T00:55:01.345Z,84.1474
2019-05-02T00:56:05.137Z,83.9399
2019-05-02T00:57:14.954Z,84.0772
2019-05-02T00:58:19.265Z,83.9414
2019-05-02T00:59:22.284Z,84.1505
2019-05-02T01:00:25.323Z,84.3854
2019-05-02T01:01:29.724Z,84.3488
2019-05-02T01:02:35.843Z,84.3626
2019-05-02T01:03:42.270Z,84.3977
2019-05-02T01:04:45.327Z,84.6326
2019-05-02T01:05:48.307Z,84.7913
2019-05-02T01:06:51.361Z,84.9760
2019-05-02T01:07:56.141Z,84.9577
2019-05-02T01:09:05.860Z,85.1591
2019-05-02T01:10:10.286Z,85.3223
2019-05-02T01:11:13.290Z,85.3269
2019-05-02T01:12:26.117Z,85.4292
2019-05-02T01:13:24.333Z,85.2262
2019-05-02T01:14:31.643Z,85.3971
2019-05-02T01:15:39.028Z,85.4932
2019-05-02T01:16:43.278Z,85.5207
2019-05-02T01:17:46.315Z,85.5833
2019-05-02T01:18:49.330Z,85.2720
2019-05-02T01:19:52.743Z,85.2857
2019-05-02T01:20:58.126Z,85.5161
2019-05-02T01:22:03.277Z,85.4246
2019-05-02T01:23:06.325Z,85.2872
2019-05-02T01:24:09.288Z,85.4887
2019-05-02T01:25:15.730Z,85.7633
2019-05-02T01:26:24.280Z,86.1524
2019-05-02T01:27:28.302Z,86.0182
2019-05-02T01:28:31.329Z,85.7496
2019-05-02T01:29:34.316Z,85.6306
2019-05-02T01:30:42.239Z,85.8412
2019-05-02T01:31:45.290Z,85.9541
2019-05-02T01:32:48.306Z,86.0700
2019-05-02T01:33:51.302Z,86.1662
2019-05-02T01:34:56.214Z,86.1524
2019-05-02T01:36:01.635Z,86.5583
2019-05-02T01:37:07.299Z,86.7521
2019-05-02T01:38:10.301Z,87.0085
2019-05-02T01:39:13.335Z,86.8376
2019-05-02T01:40:17.685Z,86.8376
2019-05-02T01:41:24.063Z,86.9627
2019-05-02T01:42:39.571Z,86.9841
2019-05-02T01:43:38.281Z,87.5242
2019-05-02T01:44:41.334Z,87.3472
2019-05-02T01:45:46.587Z,87.1992
2019-05-02T01:46:49.315Z,87.0451
2019-05-02T01:47:51.282Z,87.2496
2019-05-02T01:48:54.288Z,86.9016
2019-05-02T01:49:59.145Z,86.8940
2019-05-02T01:51:04.345Z,87.0665
2019-05-02T01:52:10.292Z,87.0527
2019-05-02T01:53:13.293Z,87.0390
2019-05-02T01:54:16.274Z,87.1733
2019-05-02T01:55:21.184Z,87.4098
2019-05-02T01:56:28.437Z,87.2862
2019-05-02T01:57:33.283Z,87.5242
2019-05-02T01:58:35.303Z,87.7943
2019-05-02T01:59:38.272Z,87.8172
2019-05-02T02:00:44.753Z,87.7501
2019-05-02T02:01:53.119Z,87.8264
2019-05-02T02:02:57.319Z,87.8126
2019-05-02T02:04:00.279Z,87.9561
2019-05-02T02:05:03.318Z,87.7226
2019-05-02T02:06:08.143Z,87.7714
2019-05-02T02:07:15.075Z,87.9286
2019-05-02T02:08:21.326Z,87.7867
2019-05-02T02:09:24.313Z,87.5242
2019-05-02T02:10:27.314Z,87.5578
2019-05-02T02:11:33.898Z,87.5975
2019-05-02T02:12:41.252Z,87.6677
2019-05-02T02:13:46.284Z,87.4891
2019-05-02T02:14:53.372Z,87.4022
2019-05-02T02:16:00.147Z,87.4235
2019-05-02T02:17:05.306Z,87.7684
2019-05-02T02:18:08.267Z,87.6539
2019-05-02T02:19:11.305Z,87.8599
2019-05-02T02:20:14.130Z,87.8782
2019-05-02T02:21:20.172Z,87.8050
2019-05-02T02:22:26.291Z,87.8874
2019-05-02T02:23:29.286Z,87.6951
2019-05-02T02:24:32.298Z,87.5700
2019-05-02T02:25:36.329Z,87.5151
2019-05-02T02:26:43.556Z,87.5288
2019-05-02T02:27:50.252Z,87.3518
2019-05-02T02:28:53.320Z,87.3411
2019-05-02T02:29:56.286Z,87.1733
2019-05-02T02:31:04.968Z,87.0817
2019-05-02T02:32:07.312Z,86.9932
2019-05-02T02:33:10.306Z,86.8879
2019-05-02T02:34:13.281Z,87.1641
2019-05-02T02:35:16.298Z,86.9718
2019-05-02T02:36:29.948Z,87.0939
2019-05-02T02:37:27.294Z,87.1214
2019-05-02T02:38:33.662Z,87.6982
2019-05-02T02:39:38.271Z,87.4327
2019-05-02T02:40:40.289Z,87.2236
2019-05-02T02:41:45.380Z,87.2908
2019-05-02T02:42:50.330Z,87.4098
2019-05-02T02:43:54.824Z,87.4662
2019-05-02T02:45:01.326Z,87.4342
2019-05-02T02:46:04.301Z,87.4342
2019-05-02T02:47:12.117Z,87.5654
2019-05-02T02:48:15.337Z,88.1163
2019-05-02T02:49:21.248Z,88.1331
2019-05-02T02:50:26.308Z,88.5695
2019-05-02T02:51:29.281Z,88.0018
2019-05-02T02:52:37.941Z,87.3594
2019-05-02T02:53:40.297Z,87.4876
2019-05-02T02:54:44.931Z,87.5486
2019-05-02T02:55:48.273Z,87.5746
2019-05-02T02:56:51.332Z,87.9591
2019-05-02T02:57:58.469Z,87.9957
2019-05-02T02:59:02.334Z,88.0018
2019-05-02T03:00:07.639Z,88.2582
2019-05-02T03:01:27.372Z,87.9881
2019-05-02T03:02:23.297Z,88.1056
2019-05-02T03:03:27.931Z,88.2658
2019-05-02T03:04:33.322Z,88.4627
2019-05-02T03:05:36.322Z,88.6091
2019-05-02T03:06:45.070Z,88.3589
2019-05-02T03:07:47.298Z,88.3360
2019-05-02T03:08:50.302Z,88.4993
2019-05-02T03:09:53.270Z,88.5786
2019-05-02T03:10:56.322Z,88.5969
2019-05-02T03:12:02.042Z,88.6656
2019-05-02T03:13:07.319Z,88.8289
2019-05-02T03:14:10.283Z,88.8212
2019-05-02T03:15:13.292Z,88.7617
2019-05-02T03:16:16.332Z,88.8624
2019-05-02T03:17:25.802Z,88.9296
2019-05-02T03:18:27.365Z,88.8563
2019-05-02T03:19:30.285Z,88.7968
2019-05-02T03:20:40.113Z,88.7236
2019-05-02T03:21:41.287Z,88.9311
2019-05-02T03:22:43.561Z,88.7739
2019-05-02T03:23:46.289Z,88.7556
2019-05-02T03:24:49.336Z,88.8655
2019-05-02T03:25:52.326Z,89.1585
2019-05-02T03:26:57.851Z,89.0684
2019-05-02T03:28:01.307Z,88.7434
2019-05-02T03:29:04.280Z,88.4962
2019-05-02T03:30:07.332Z,89.0410
2019-05-02T03:31:24.246Z,89.3294
2019-05-02T03:32:32.172Z,89.4926
2019-05-02T03:33:26.285Z,89.7185
2019-05-02T03:34:44.957Z,89.7719
2019-05-02T03:35:43.923Z,89.5079
2019-05-02T03:36:45.335Z,89.1722
2019-05-02T03:37:51.485Z,89.2088
2019-05-02T03:38:56.305Z,88.9494
2019-05-02T03:40:00.595Z,89.0166
2019-05-02T03:41:04.293Z,88.8624
2019-05-02T03:42:07.345Z,88.4184
2019-05-02T03:43:10.297Z,88.9403
2019-05-02T03:44:24.596Z,88.5512
2019-05-02T03:45:21.279Z,88.8014
2019-05-02T03:46:24.320Z,88.6915
2019-05-02T03:47:27.325Z,88.6641
2019-05-02T03:48:30.295Z,88.7846
2019-05-02T03:49:33.277Z,88.9525
2019-05-02T03:50:36.291Z,89.0043
2019-05-02T03:51:39.329Z,88.5054
2019-05-02T03:52:44.495Z,88.1392
2019-05-02T03:53:49.332Z,87.9408
2019-05-02T03:54:52.704Z,87.8218
2019-05-02T03:55:56.287Z,88.0690
2019-05-02T03:56:59.269Z,88.0278
2019-05-02T03:58:13.335Z,87.8096
2019-05-02T03:59:10.279Z,88.1346
2019-05-02T04:00:20.756Z,88.0980
2019-05-02T04:01:21.279Z,88.1102
2019-05-02T04:02:24.332Z,87.8218
2019-05-02T04:03:27.324Z,88.3391
2019-05-02T04:04:30.299Z,88.4276
2019-05-02T04:05:33.855Z,88.3131
2019-05-02T04:06:41.288Z,88.7694
2019-05-02T04:07:44.311Z,88.9158
2019-05-02T04:08:47.285Z,88.9296
2019-05-02T04:09:50.336Z,89.2500
2019-05-02T04:10:59.440Z,89.1829
2019-05-02T04:12:01.305Z,89.1173
2019-05-02T04:13:04.267Z,89.4163
2019-05-02T04:14:14.642Z,89.5583
2019-05-02T04:15:15.377Z,89.7765
2019-05-02T04:16:18.287Z,89.9565
2019-05-02T04:17:21.313Z,89.9184
2019-05-02T04:18:24.289Z,89.5293
2019-05-02T04:19:28.535Z,89.8787
2019-05-02T04:20:35.290Z,89.9702
2019-05-02T04:21:38.320Z,90.1289
2019-05-02T04:22:42.935Z,89.7215
2019-05-02T04:23:49.324Z,89.3431
2019-05-02T04:24:56.705Z,88.5176
2019-05-02T04:26:00.349Z,89.0166
2019-05-02T04:27:03.269Z,88.4581
2019-05-02T04:28:12.121Z,88.4596
2019-05-02T04:29:14.309Z,88.2353
2019-05-02T04:30:17.279Z,88.3909
2019-05-02T04:31:24.720Z,88.2017
2019-05-02T04:32:29.296Z,88.4352
2019-05-02T04:33:34.644Z,88.4535
2019-05-02T04:34:39.278Z,88.4764
2019-05-02T04:35:42.294Z,88.6839
2019-05-02T04:36:46.603Z,88.3818
2019-05-02T04:37:50.290Z,88.5557
2019-05-02T04:38:52.810Z,88.2994
2019-05-02T04:39:59.150Z,88.0476
2019-05-02T04:41:04.288Z,87.9408
2019-05-02T04:42:13.080Z,87.6478
2019-05-02T04:43:18.225Z,87.4784
2019-05-02T04:44:21.291Z,87.0573
2019-05-02T04:45:29.335Z,87.2557
2019-05-02T04:46:32.274Z,87.0848
2019-05-02T04:47:35.348Z,87.1458
2019-05-02T04:48:43.730Z,87.2007
2019-05-02T04:49:49.096Z,87.3610
2019-05-02T04:50:59.431Z,87.2908
2019-05-02T04:52:10.646Z,87.1138
2019-05-02T04:53:10.301Z,87.0405
2019-05-02T04:54:22.067Z,87.0497
2019-05-02T04:55:28.200Z,86.8803
2019-05-02T04:56:29.324Z,86.8330
2019-05-02T04:57:37.083Z,86.6331
2019-05-02T04:58:40.824Z,86.9490
2019-05-02T04:59:44.304Z,86.8101
2019-05-02T05:00:53.592Z,87.0039
2019-05-02T05:01:58.452Z,86.8528
2019-05-02T05:03:08.422Z,86.6087
2019-05-02T05:04:11.342Z,86.6194
2019-05-02T05:05:17.369Z,86.5782
2019-05-02T05:06:22.299Z,86.3127
2019-05-02T05:07:25.288Z,86.0014
2019-05-02T05:08:31.946Z,86.2928
2019-05-02T05:09:35.312Z,86.3722
2019-05-02T05:10:41.595Z,86.7338
2019-05-02T05:11:48.123Z,86.5415
2019-05-02T05:12:51.296Z,86.2852
2019-05-02T05:13:57.678Z,85.5421
2019-05-02T05:15:02.311Z,85.8259
2019-05-02T05:16:08.143Z,85.1362
2019-05-02T05:17:13.280Z,85.3971
2019-05-02T05:18:17.649Z,85.5711
2019-05-02T05:19:23.069Z,85.4780
2019-05-02T05:20:28.332Z,85.1865
2019-05-02T05:21:31.319Z,85.5802
2019-05-02T05:22:38.564Z,85.8854
2019-05-02T05:23:42.301Z,85.4917
2019-05-02T05:24:45.319Z,85.7527
2019-05-02T05:25:50.571Z,85.4093
2019-05-02T05:26:57.831Z,85.4047
2019-05-02T05:28:05.813Z,85.6031
2019-05-02T05:29:09.299Z,85.5100
2019-05-02T05:30:15.664Z,85.3605
2019-05-02T05:31:23.986Z,85.5283
2019-05-02T05:32:28.345Z,85.6794
2019-05-02T05:33:31.292Z,85.7206
2019-05-02T05:34:34.305Z,85.5787
2019-05-02T05:35:38.558Z,85.4826
2019-05-02T05:36:41.357Z,85.7908
2019-05-02T05:37:51.485Z,85.5711
2019-05-02T05:38:52.316Z,85.8900
2019-05-02T05:39:55.298Z,85.9861
2019-05-02T05:41:02.880Z,86.1189
2019-05-02T05:42:08.405Z,85.9373
2019-05-02T05:43:15.862Z,86.1341
2019-05-02T05:44:23.313Z,86.3401
2019-05-02T05:45:29.307Z,86.3172
2019-05-02T05:46:33.447Z,86.4179
2019-05-02T05:47:40.325Z,86.0792
2019-05-02T05:48:43.309Z,85.8122
2019-05-02T05:49:47.733Z,85.5711
2019-05-02T05:50:51.299Z,85.3864
2019-05-02T05:51:59.524Z,85.1209
2019-05-02T05:53:02.346Z,84.7272
2019-05-02T05:54:05.328Z,84.7974
2019-05-02T05:55:12.617Z,85.1438
2019-05-02T05:56:18.050Z,84.6357
2019-05-02T05:57:21.344Z,84.9073
2019-05-02T05:58:24.366Z,84.9470
2019-05-02T05:59:30.894Z,84.3259
2019-05-02T06:00:35.291Z,84.4129
2019-05-02T06:01:38.542Z,84.3885
2019-05-02T06:02:53.023Z,84.3107
2019-05-02T06:03:49.286Z,83.8041
2019-05-02T06:04:55.359Z,83.4928
2019-05-02T06:06:00.287Z,83.5828
2019-05-02T06:07:03.400Z,83.4653
2019-05-02T06:08:08.057Z,83.2364
2019-05-02T06:09:13.772Z,82.9984
2019-05-02T06:10:17.310Z,83.3234
2019-05-02T06:11:21.791Z,83.2715
2019-05-02T06:12:26.186Z,83.1403
2019-05-02T06:13:32.328Z,83.5828
2019-05-02T06:14:35.335Z,82.8794
2019-05-02T06:15:39.095Z,83.3967
2019-05-02T06:16:46.617Z,83.1113
2019-05-02T06:17:51.293Z,81.9409
2019-05-02T06:18:54.355Z,79.3912
2019-05-02T06:19:57.313Z,79.3591
2019-05-02T06:21:03.433Z,80.4074
2019-05-02T06:22:08.310Z,79.5224
2019-05-02T06:23:11.288Z,79.1058
2019-05-02T06:24:15.681Z,78.8647
2019-05-02T06:25:32.884Z,78.2696
2019-05-02T06:26:27.314Z,77.1344
2019-05-02T06:27:30.475Z,77.5082
2019-05-02T06:28:36.255Z,77.5814
2019-05-02T06:29:42.299Z,76.6705
2019-05-02T06:30:45.309Z,76.3455
2019-05-02T06:31:48.311Z,76.3546
2019-05-02T06:32:54.949Z,77.2992
2019-05-02T06:34:02.124Z,77.8881
2019-05-02T06:35:07.296Z,78.8693
2019-05-02T06:36:10.333Z,79.1898
2019-05-02T06:37:15.306Z,78.8968
2019-05-02T06:38:21.541Z,79.3027
2019-05-02T06:39:27.113Z,79.5651
2019-05-02T06:40:34.337Z,79.1928
2019-05-02T06:41:37.282Z,79.1333
2019-05-02T06:42:40.326Z,79.2218
2019-05-02T06:43:46.635Z,78.5626
2019-05-02T06:44:54.901Z,78.3978
2019-05-02T06:45:59.352Z,78.3062
2019-05-02T06:47:04.415Z,78.4344
2019-05-02T06:48:08.305Z,77.5601
2019-05-02T06:49:11.268Z,77.9385
2019-05-02T06:50:14.318Z,78.1460
2019-05-02T06:51:20.810Z,77.5952
2019-05-02T06:52:27.288Z,77.5875
2019-05-02T06:53:34.972Z,77.3358
2019-05-02T06:54:38.300Z,77.4121
2019-05-02T06:55:41.298Z,76.8643
2019-05-02T06:56:47.848Z,75.8206
2019-05-02T06:57:57.014Z,75.8282
2019-05-02T06:59:00.308Z,75.4391
2019-05-02T07:00:03.313Z,75.5306
2019-05-02T07:01:06.345Z,75.5169
2019-05-02T07:02:09.347Z,75.5505
2019-05-02T07:03:12.262Z,75.3765
2019-05-02T07:04:17.541Z,75.2789
2019-05-02T07:05:27.221Z,75.4391
2019-05-02T07:06:34.818Z,75.1842
2019-05-02T07:07:38.399Z,75.1232
2019-05-02T07:08:41.333Z,75.2560
2019-05-02T07:09:44.317Z,73.9879
2019-05-02T07:10:47.315Z,74.1390
2019-05-02T07:11:56.932Z,74.6410
2019-05-02T07:13:10.117Z,73.6431
2019-05-02T07:14:12.876Z,73.5576
2019-05-02T07:15:14.339Z,73.1441
2019-05-02T07:16:37.288Z,73.8048
2019-05-02T07:17:26.575Z,73.4295
2019-05-02T07:18:33.351Z,72.5872
2019-05-02T07:19:36.304Z,72.9534
2019-05-02T07:20:40.644Z,72.3217
2019-05-02T07:21:45.308Z,72.6360
2019-05-02T07:22:48.288Z,72.2561
2019-05-02T07:23:53.785Z,71.7952
2019-05-02T07:25:01.870Z,70.9468
2019-05-02T07:26:06.306Z,70.8843
2019-05-02T07:27:09.330Z,70.4982
2019-05-02T07:28:11.297Z,70.9438
2019-05-02T07:29:17.016Z,70.0679
2019-05-02T07:30:22.302Z,69.7444
2019-05-02T07:31:25.311Z,70.2434
2019-05-02T07:32:28.309Z,69.8024
2019-05-02T07:33:32.416Z,69.6117
2019-05-02T07:34:39.372Z,68.7724
2019-05-02T07:35:42.331Z,69.4499
2019-05-02T07:36:45.316Z,68.8701
2019-05-02T07:37:48.824Z,68.8746
2019-05-02T07:38:57.528Z,69.2256
2019-05-02T07:40:01.320Z,68.8457
2019-05-02T07:41:04.325Z,68.5298
2019-05-02T07:42:07.883Z,68.7327
2019-05-02T07:43:13.536Z,68.3192
2019-05-02T07:44:19.292Z,68.4306
2019-05-02T07:45:22.318Z,68.2338
2019-05-02T07:46:25.387Z,68.1743
2019-05-02T07:47:28.938Z,68.3879
2019-05-02T07:48:33.394Z,67.3259
2019-05-02T07:49:36.275Z,67.1611
2019-05-02T07:50:41.168Z,67.5059
2019-05-02T07:51:47.309Z,66.7170
2019-05-02T07:52:50.351Z,67.2312
2019-05-02T07:53:55.513Z,66.8788
2019-05-02T07:55:01.115Z,66.7277
2019-05-02T07:56:05.329Z,66.5705
2019-05-02T07:57:08.311Z,65.3544
2019-05-02T07:58:11.322Z,65.2354
2019-05-02T07:59:13.288Z,65.6596
2019-05-02T08:00:16.310Z,64.8585
2019-05-02T08:01:19.295Z,64.5060
2019-05-02T08:02:25.046Z,64.6769
2019-05-02T08:03:33.294Z,65.0935
2019-05-02T08:04:37.322Z,63.6683
2019-05-02T08:05:40.320Z,63.8483
2019-05-02T08:06:44.624Z,63.8285
2019-05-02T08:07:53.362Z,63.2380
2019-05-02T08:09:01.608Z,64.0803
2019-05-02T08:10:05.314Z,63.7049
2019-05-02T08:11:08.308Z,63.8697
2019-05-02T08:12:11.315Z,63.6591
2019-05-02T08:13:17.585Z,62.9969
2019-05-02T08:14:22.329Z,63.4211
2019-05-02T08:15:25.293Z,63.0426
2019-05-02T08:16:28.602Z,63.4028
2019-05-02T08:17:32.374Z,63.0503
2019-05-02T08:18:35.330Z,62.6993
2019-05-02T08:19:41.669Z,63.0549
2019-05-02T08:20:46.303Z,62.9877
2019-05-02T08:21:49.311Z,63.1464
2019-05-02T08:22:52.296Z,63.9063
2019-05-02T08:23:57.227Z,64.1352
2019-05-02T08:25:03.284Z,62.5605
2019-05-02T08:26:06.352Z,62.0584
2019-05-02T08:27:09.304Z,61.2665
2019-05-02T08:28:15.814Z,61.1093
2019-05-02T08:29:23.441Z,61.1887
2019-05-02T08:30:28.311Z,61.1002
2019-05-02T08:31:31.320Z,60.7980
2019-05-02T08:32:34.312Z,60.0122
2019-05-02T08:33:38.382Z,60.0610
2019-05-02T08:34:41.316Z,58.9715
2019-05-02T08:35:44.337Z,58.1155
2019-05-02T08:36:47.290Z,60.7980
2019-05-02T08:37:50.309Z,59.9649
2019-05-02T08:38:54.056Z,59.0951
2019-05-02T08:39:58.363Z,60.3281
2019-05-02T08:41:01.311Z,59.7086
2019-05-02T08:42:04.305Z,58.7991
2019-05-02T08:43:09.290Z,58.7625
2019-05-02T08:44:16.694Z,59.1012
2019-05-02T08:45:20.329Z,59.0967
2019-05-02T08:46:23.322Z,58.2818
2019-05-02T08:47:28.685Z,58.1720
2019-05-02T08:48:36.556Z,58.4054
2019-05-02T08:49:42.589Z,57.7234
2019-05-02T08:50:44.387Z,57.7813
2019-05-02T08:51:47.335Z,54.5739
2019-05-02T08:52:50.275Z,55.2682
2019-05-02T08:53:56.726Z,53.6477
2019-05-02T08:55:04.395Z,54.9706
2019-05-02T08:56:09.349Z,54.2428
2019-05-02T08:57:12.385Z,54.3572
2019-05-02T08:58:15.975Z,54.6548
2019-05-02T08:59:19.724Z,54.4686
2019-05-02T09:00:23.292Z,54.6197
2019-05-02T09:01:34.823Z,54.4076
2019-05-02T09:02:41.148Z,54.3313
2019-05-02T09:03:54.629Z,54.5312
2019-05-02T09:04:58.343Z,55.3201
2019-05-02T09:06:05.685Z,54.6517
2019-05-02T09:07:06.387Z,55.6985
2019-05-02T09:08:14.171Z,54.7387
2019-05-02T09:09:17.309Z,55.4482
2019-05-02T09:10:20.308Z,55.6039
2019-05-02T09:11:23.339Z,55.8236
2019-05-02T09:12:26.346Z,55.5535
2019-05-02T09:13:29.674Z,54.8379
2019-05-02T09:14:33.305Z,54.8440
2019-05-02T09:15:40.383Z,55.0347
2019-05-02T09:16:44.286Z,53.9925
2019-05-02T09:17:54.422Z,54.5235
2019-05-02T09:18:55.394Z,55.8511
2019-05-02T09:20:02.278Z,55.0347
2019-05-02T09:21:06.322Z,55.0988
2019-05-02T09:22:13.313Z,55.8282
2019-05-02T09:23:17.302Z,55.1904
2019-05-02T09:24:23.275Z,55.4574
2019-05-02T09:25:27.328Z,55.3658
2019-05-02T09:26:36.021Z,55.9792
2019-05-02T09:27:38.334Z,56.1517
2019-05-02T09:28:42.230Z,55.8999
2019-05-02T09:29:45.994Z,55.6069
2019-05-02T09:30:49.296Z,56.0433
2019-05-02T09:31:52.661Z,55.5489
2019-05-02T09:32:57.098Z,55.4376
2019-05-02T09:34:04.326Z,55.5932
2019-05-02T09:35:09.357Z,55.7671
2019-05-02T09:36:12.358Z,56.3165
2019-05-02T09:37:15.329Z,56.3897
2019-05-02T09:38:17.305Z,55.7580
2019-05-02T09:39:22.501Z,55.7443
2019-05-02T09:40:25.355Z,56.4813
2019-05-02T09:41:34.423Z,55.7733
2019-05-02T09:42:36.299Z,56.4050
2019-05-02T09:43:39.375Z,56.9299
2019-05-02T09:44:42.613Z,56.1166
2019-05-02T09:45:45.309Z,55.9457
2019-05-02T09:46:53.014Z,55.9319
2019-05-02T09:48:03.986Z,55.6085
2019-05-02T09:49:10.656Z,56.3088
2019-05-02T09:50:12.846Z,55.2819
2019-05-02T09:51:17.383Z,56.1013
2019-05-02T09:52:22.136Z,55.3567
2019-05-02T09:53:25.632Z,55.9823
2019-05-02T09:54:29.290Z,55.1278
2019-05-02T09:55:32.287Z,54.2947
2019-05-02T09:56:35.301Z,54.3130
2019-05-02T09:57:38.322Z,53.9559
2019-05-02T09:58:42.000Z,55.2880
2019-05-02T09:59:50.624Z,54.2351
2019-05-02T10:00:53.342Z,53.4569
2019-05-02T10:01:56.304Z,54.0047
2019-05-02T10:02:59.348Z,53.7545
2019-05-02T10:04:02.447Z,54.8119
2019-05-02T10:05:05.346Z,54.7967
2019-05-02T10:06:12.653Z,55.3384
2019-05-02T10:07:16.384Z,56.4996
2019-05-02T10:08:19.334Z,56.6278
2019-05-02T10:09:25.719Z,56.6201
2019-05-02T10:10:32.220Z,56.0006
2019-05-02T10:11:35.335Z,55.5993
2019-05-02T10:12:38.363Z,55.7855
2019-05-02T10:13:42.422Z,55.5718
2019-05-02T10:14:46.340Z,56.9162
2019-05-02T10:15:49.324Z,55.6298
2019-05-02T10:16:52.935Z,56.1242
2019-05-02T10:18:07.937Z,55.4925
2019-05-02T10:19:09.434Z,54.4717
2019-05-02T10:20:13.320Z,54.9706
2019-05-02T10:21:17.218Z,55.4330
2019-05-02T10:22:20.345Z,54.5861
2019-05-02T10:23:23.582Z,54.1100
2019-05-02T10:24:27.307Z,53.7301
2019-05-02T10:25:38.326Z,52.9992
2019-05-02T10:26:38.311Z,51.3497
2019-05-02T10:27:46.068Z,52.1111
2019-05-02T10:28:50.751Z,51.3680
2019-05-02T10:29:57.253Z,52.1157
2019-05-02T10:31:02.077Z,51.7983
2019-05-02T10:32:07.657Z,49.8802
2019-05-02T10:33:12.379Z,50.0740
2019-05-02T10:34:17.663Z,50.4616
2019-05-02T10:35:22.903Z,50.5089
2019-05-02T10:36:26.309Z,49.8863
2019-05-02T10:37:30.619Z,50.1472
2019-05-02T10:38:37.296Z,49.8253
2019-05-02T10:39:42.230Z,50.4860
2019-05-02T10:40:48.429Z,49.8619
2019-05-02T10:41:53.315Z,50.4662
2019-05-02T10:42:56.331Z,50.7057
2019-05-02T10:43:59.668Z,49.9962
2019-05-02T10:45:07.483Z,49.8131
2019-05-02T10:46:12.597Z,49.5796
2019-05-02T10:47:15.298Z,48.4443
2019-05-02T10:48:27.459Z,47.6158
2019-05-02T10:49:26.309Z,47.8019
2019-05-02T10:50:28.369Z,49.3263
2019-05-02T10:51:31.691Z,48.8457
2019-05-02T10:52:35.318Z,49.4926
2019-05-02T10:53:38.273Z,49.6559
2019-05-02T10:54:42.178Z,49.9184
2019-05-02T10:55:45.321Z,48.8060
2019-05-02T10:56:48.323Z,49.6056
2019-05-02T10:57:52.698Z,49.7841
2019-05-02T10:58:56.329Z,53.2692
2019-05-02T10:59:59.318Z,49.6513
2019-05-02T11:01:02.365Z,50.2663
2019-05-02T11:02:05.301Z,50.3395
2019-05-02T11:03:08.310Z,49.3400
2019-05-02T11:04:12.865Z,48.9647
2019-05-02T11:05:16.970Z,49.1478
2019-05-02T11:06:24.356Z,49.9367
2019-05-02T11:07:27.312Z,49.3904
2019-05-02T11:08:31.941Z,48.6122
2019-05-02T11:09:35.282Z,49.1173
2019-05-02T11:10:38.330Z,49.2485
2019-05-02T11:11:42.374Z,48.7831
2019-05-02T11:12:47.015Z,49.1432
2019-05-02T11:13:53.422Z,49.7765
2019-05-02T11:14:58.320Z,48.2780
2019-05-02T11:16:01.684Z,49.2821
2019-05-02T11:17:09.087Z,49.6468
2019-05-02T11:18:13.341Z,49.4957
2019-05-02T11:19:16.281Z,49.0578
2019-05-02T11:20:19.302Z,49.7520
2019-05-02T11:21:22.937Z,48.8273
2019-05-02T11:22:26.329Z,47.5959
2019-05-02T11:23:29.371Z,47.9164
2019-05-02T11:24:32.327Z,48.3192
2019-05-02T11:25:35.295Z,48.3848
2019-05-02T11:26:38.315Z,47.6600
2019-05-02T11:27:41.894Z,49.0379
2019-05-02T11:28:44.317Z,49.3492
2019-05-02T11:29:47.323Z,49.5888
2019-05-02T11:30:52.307Z,48.7922
2019-05-02T11:31:55.294Z,48.4993
2019-05-02T11:32:58.352Z,49.0440
2019-05-02T11:34:01.932Z,48.6412
2019-05-02T11:35:05.283Z,47.2953
2019-05-02T11:36:08.321Z,47.3167
2019-05-02T11:37:12.054Z,48.2963
2019-05-02T11:38:15.840Z,47.9026
2019-05-02T11:39:27.180Z,48.7221
2019-05-02T11:40:27.312Z,49.2256
2019-05-02T11:41:31.797Z,47.9118
2019-05-02T11:42:35.291Z,47.6783
2019-05-02T11:43:41.414Z,48.0949
2019-05-02T11:44:45.337Z,48.3696
2019-05-02T11:45:48.322Z,48.9281
2019-05-02T11:46:52.089Z,50.0099
2019-05-02T11:47:56.102Z,47.8080
2019-05-02T11:49:03.355Z,48.2826
2019-05-02T11:50:06.337Z,47.6341
2019-05-02T11:51:14.884Z,48.5313
2019-05-02T11:52:17.316Z,47.7943
2019-05-02T11:53:27.000Z,47.6204
2019-05-02T11:54:29.352Z,47.6295
2019-05-02T11:55:32.330Z,47.2251
2019-05-02T11:56:35.315Z,46.9917
2019-05-02T11:57:37.315Z,47.2450
2019-05-02T11:58:47.863Z,48.6870
2019-05-02T11:59:48.367Z,48.3925
2019-05-02T12:00:52.288Z,48.1910
2019-05-02T12:01:59.437Z,48.9830
2019-05-02T12:03:03.308Z,48.4291
2019-05-02T12:04:11.711Z,49.0944
2019-05-02T12:05:14.320Z,48.8960
2019-05-02T12:06:19.617Z,48.5954
2019-05-02T12:07:23.324Z,48.2597
2019-05-02T12:08:26.318Z,48.3391
2019-05-02T12:09:29.298Z,48.6091
2019-05-02T12:10:36.524Z,48.5664
2019-05-02T12:11:41.820Z,48.7861
2019-05-02T12:12:45.319Z,48.9204
2019-05-02T12:13:52.909Z,48.4077
2019-05-02T12:14:58.318Z,49.2668
2019-05-02T12:16:02.693Z,49.8894
2019-05-02T12:17:05.393Z,49.7902
2019-05-02T12:18:08.291Z,50.0328
2019-05-02T12:19:14.351Z,50.2480
2019-05-02T12:20:18.335Z,51.7494
2019-05-02T12:21:22.895Z,53.2128
2019-05-02T12:22:26.307Z,54.5144
2019-05-02T12:23:29.313Z,57.5708
2019-05-02T12:24:31.873Z,59.0738
2019-05-02T12:25:35.325Z,60.1572
2019-05-02T12:26:38.331Z,59.3240
2019-05-02T12:27:42.463Z,59.8657
2019-05-02T12:28:45.288Z,61.5030
2019-05-02T12:29:57.857Z,62.4613
2019-05-02T12:30:58.297Z,61.7548
2019-05-02T12:32:02.598Z,63.2120
2019-05-02T12:33:06.312Z,62.3087
2019-05-02T12:34:09.277Z,63.0793
2019-05-02T12:35:12.318Z,62.8504
2019-05-02T12:36:15.280Z,63.5370
2019-05-02T12:37:18.379Z,63.5126
2019-05-02T12:38:23.081Z,63.3799
2019-05-02T12:39:26.322Z,63.9445
2019-05-02T12:40:29.325Z,64.0299
2019-05-02T12:41:33.082Z,64.0162
2019-05-02T12:42:36.342Z,64.0452
2019-05-02T12:43:39.318Z,64.1993
2019-05-02T12:44:42.700Z,64.2588
2019-05-02T12:45:45.326Z,65.0660
2019-05-02T12:46:48.323Z,66.1463
2019-05-02T12:47:52.304Z,66.9017
2019-05-02T12:48:55.294Z,69.3400
2019-05-02T12:49:58.344Z,69.1356
2019-05-02T12:51:01.997Z,68.8777
2019-05-02T12:52:05.339Z,68.2368
2019-05-02T12:53:08.317Z,69.3645
2019-05-02T12:54:12.370Z,70.3670
2019-05-02T12:55:15.277Z,69.8482
2019-05-02T12:56:18.304Z,70.3746
2019-05-02T12:57:21.978Z,71.1849
2019-05-02T12:58:25.341Z,70.7591
2019-05-02T12:59:28.300Z,71.6793
2019-05-02T13:00:31.988Z,70.9758